sensor_id;sensor_type;location;lat;lon;timestamp;temperature;humidity
50738;DHT22;36703;48.154;17.126;2022-10-16T06:34:56;17.60;59.50
50738;DHT22;36703;48.154;17.126;2022-10-16T06:38:57;17.60;59.40
50738;DHT22;36703;48.154;17.126;2022-10-16T06:42:58;17.60;59.40
50738;DHT22;36703;48.154;17.126;2022-10-16T06:47:00;17.70;59.50
50738;DHT22;36703;48.154;17.126;2022-10-16T06:55:06;17.70;59.30
50738;DHT22;36703;48.154;17.126;2022-10-16T06:59:08;17.70;59.30
50738;DHT22;36703;48.154;17.126;2022-10-16T07:03:09;17.70;59.40
50738;DHT22;36703;48.154;17.126;2022-10-16T07:07:11;17.80;59.30
50738;DHT22;36703;48.154;17.126;2022-10-16T07:11:13;17.90;59.00
50738;DHT22;36703;48.154;17.126;2022-10-16T07:15:16;18.00;58.80
50738;DHT22;36703;48.154;17.126;2022-10-16T07:19:17;18.10;58.70
50738;DHT22;36703;48.154;17.126;2022-10-16T07:23:19;18.20;58.50
50738;DHT22;36703;48.154;17.126;2022-10-16T07:27:20;18.20;58.50
50738;DHT22;36703;48.154;17.126;2022-10-16T07:31:24;18.40;58.30
50738;DHT22;36703;48.154;17.126;2022-10-16T07:35:26;18.40;58.00
50738;DHT22;36703;48.154;17.126;2022-10-16T07:39:27;18.50;58.20
50738;DHT22;36703;48.154;17.126;2022-10-16T07:43:29;18.50;57.80
50738;DHT22;36703;48.154;17.126;2022-10-16T07:47:30;18.60;57.60
50738;DHT22;36703;48.154;17.126;2022-10-16T07:51:32;18.70;57.70
50738;DHT22;36703;48.154;17.126;2022-10-16T07:55:33;18.90;57.50
50738;DHT22;36703;48.154;17.126;2022-10-16T07:59:35;19.00;57.30
50738;DHT22;36703;48.154;17.126;2022-10-16T08:03:36;19.20;57.00
50738;DHT22;36703;48.154;17.126;2022-10-16T08:07:38;19.30;56.80
50738;DHT22;36703;48.154;17.126;2022-10-16T08:11:39;19.40;56.50
50738;DHT22;36703;48.154;17.126;2022-10-16T08:15:41;19.50;56.40
50738;DHT22;36703;48.154;17.126;2022-10-16T08:19:44;19.70;56.20
50738;DHT22;36703;48.154;17.126;2022-10-16T08:23:51;20.00;55.90
50738;DHT22;36703;48.154;17.126;2022-10-16T08:27:54;20.20;55.50
50738;DHT22;36703;48.154;17.126;2022-10-16T08:31:55;20.60;55.30
50738;DHT22;36703;48.154;17.126;2022-10-16T08:35:56;20.60;54.80
50738;DHT22;36703;48.154;17.126;2022-10-16T08:39:58;20.80;54.60
50738;DHT22;36703;48.154;17.126;2022-10-16T08:48:25;20.70;54.30
50738;DHT22;36703;48.154;17.126;2022-10-16T08:52:32;20.60;54.30
50738;DHT22;36703;48.154;17.126;2022-10-16T08:56:36;20.50;54.40
50738;DHT22;36703;48.154;17.126;2022-10-16T09:00:37;20.50;54.60
50738;DHT22;36703;48.154;17.126;2022-10-16T09:09:22;21.00;54.30
50738;DHT22;36703;48.154;17.126;2022-10-16T09:21:59;21.50;54.10
50738;DHT22;36703;48.154;17.126;2022-10-16T09:30:14;22.20;52.50
50738;DHT22;36703;48.154;17.126;2022-10-16T09:34:36;23.10;64.80
50738;DHT22;36703;48.154;17.126;2022-10-16T09:38:38;23.20;64.60
50738;DHT22;36703;48.154;17.126;2022-10-16T09:42:39;23.40;65.40
50738;DHT22;36703;48.154;17.126;2022-10-16T09:46:40;23.60;68.30
50738;DHT22;36703;48.154;17.126;2022-10-16T09:50:42;23.90;50.30
50738;DHT22;36703;48.154;17.126;2022-10-16T09:54:57;24.20;67.40
50738;DHT22;36703;48.154;17.126;2022-10-16T10:03:51;24.90;71.10
50738;DHT22;36703;48.154;17.126;2022-10-16T10:07:45;25.20;70.00
50738;DHT22;36703;48.154;17.126;2022-10-16T10:11:54;25.20;48.20
50738;DHT22;36703;48.154;17.126;2022-10-16T10:24:24;25.80;55.90
50738;DHT22;36703;48.154;17.126;2022-10-16T10:46:13;27.10;44.90
50738;DHT22;36703;48.154;17.126;2022-10-16T13:46:58;29.00;40.20
50738;DHT22;36703;48.154;17.126;2022-10-16T13:51:17;29.00;40.30
50738;DHT22;36703;48.154;17.126;2022-10-16T13:55:22;29.10;40.20
50738;DHT22;36703;48.154;17.126;2022-10-16T13:59:25;29.00;40.20
50738;DHT22;36703;48.154;17.126;2022-10-16T14:03:29;28.90;40.30
50738;DHT22;36703;48.154;17.126;2022-10-16T14:07:31;28.90;40.40
50738;DHT22;36703;48.154;17.126;2022-10-16T14:11:36;28.80;40.40
50738;DHT22;36703;48.154;17.126;2022-10-16T14:15:59;28.80;40.50
50738;DHT22;36703;48.154;17.126;2022-10-16T14:20:04;28.70;40.60
50738;DHT22;36703;48.154;17.126;2022-10-16T14:24:11;28.50;40.60
50738;DHT22;36703;48.154;17.126;2022-10-16T14:32:21;28.00;40.90
50738;DHT22;36703;48.154;17.126;2022-10-16T14:36:24;27.80;41.00
50738;DHT22;36703;48.154;17.126;2022-10-16T14:40:28;27.70;41.20
50738;DHT22;36703;48.154;17.126;2022-10-16T14:44:36;27.70;41.20
50738;DHT22;36703;48.154;17.126;2022-10-16T14:48:46;27.70;41.30
50738;DHT22;36703;48.154;17.126;2022-10-16T14:52:48;27.60;41.40
50738;DHT22;36703;48.154;17.126;2022-10-16T14:56:51;27.50;41.50
50738;DHT22;36703;48.154;17.126;2022-10-16T15:00:53;27.30;41.70
50738;DHT22;36703;48.154;17.126;2022-10-16T15:04:56;27.20;41.80
50738;DHT22;36703;48.154;17.126;2022-10-16T15:08:58;27.20;41.90
50738;DHT22;36703;48.154;17.126;2022-10-16T15:12:59;27.10;41.90
50738;DHT22;36703;48.154;17.126;2022-10-16T15:17:01;27.00;42.00
50738;DHT22;36703;48.154;17.126;2022-10-16T15:21:02;26.90;42.10
50738;DHT22;36703;48.154;17.126;2022-10-16T15:25:10;26.90;42.20
50738;DHT22;36703;48.154;17.126;2022-10-16T15:29:28;26.80;42.30
50738;DHT22;36703;48.154;17.126;2022-10-16T15:33:30;26.70;42.50
50738;DHT22;36703;48.154;17.126;2022-10-16T15:37:34;26.70;42.50
50738;DHT22;36703;48.154;17.126;2022-10-16T15:41:36;26.70;42.50
50738;DHT22;36703;48.154;17.126;2022-10-16T15:45:37;26.60;42.70
50738;DHT22;36703;48.154;17.126;2022-10-16T15:49:38;26.50;42.80
50738;DHT22;36703;48.154;17.126;2022-10-16T15:53:40;26.40;43.00
50738;DHT22;36703;48.154;17.126;2022-10-16T15:57:42;26.30;43.10
50738;DHT22;36703;48.154;17.126;2022-10-16T16:01:44;26.10;43.20
50738;DHT22;36703;48.154;17.126;2022-10-16T16:05:45;25.90;43.40
50738;DHT22;36703;48.154;17.126;2022-10-16T16:09:46;25.80;43.50
50738;DHT22;36703;48.154;17.126;2022-10-16T16:13:48;25.70;43.90
50738;DHT22;36703;48.154;17.126;2022-10-16T16:17:49;25.60;43.70
50738;DHT22;36703;48.154;17.126;2022-10-16T16:21:50;25.60;43.80
50738;DHT22;36703;48.154;17.126;2022-10-16T16:26:09;25.40;43.80
50738;DHT22;36703;48.154;17.126;2022-10-16T16:30:26;25.30;43.90
50738;DHT22;36703;48.154;17.126;2022-10-16T16:34:28;25.20;44.00
50738;DHT22;36703;48.154;17.126;2022-10-16T16:38:29;25.10;44.00
50738;DHT22;36703;48.154;17.126;2022-10-16T16:42:33;25.00;44.20
50738;DHT22;36703;48.154;17.126;2022-10-16T16:46:34;25.00;44.30
50738;DHT22;36703;48.154;17.126;2022-10-16T16:50:36;24.90;44.40
50738;DHT22;36703;48.154;17.126;2022-10-16T16:59:18;24.70;44.60
50738;DHT22;36703;48.154;17.126;2022-10-16T17:03:20;24.60;44.80
50738;DHT22;36703;48.154;17.126;2022-10-16T17:07:22;24.50;44.80
50738;DHT22;36703;48.154;17.126;2022-10-16T17:11:25;24.50;44.90
50738;DHT22;36703;48.154;17.126;2022-10-16T17:15:27;24.40;45.00
50738;DHT22;36703;48.154;17.126;2022-10-16T17:19:28;24.30;45.10
50738;DHT22;36703;48.154;17.126;2022-10-16T17:23:30;24.30;45.10
